createdAt,value
2019-02-26T00:03:00.000Z,10.2
2019-02-26T00:08:00.000Z,10.2
2019-02-26T00:14:00.000Z,10.1
2019-02-26T00:19:00.000Z,10.1
2019-02-26T00:24:00.000Z,10.0
2019-02-26T00:29:00.000Z,9.9
2019-02-26T00:34:00.000Z,9.9
2019-02-26T00:39:00.000Z,9.8
2019-02-26T00:44:00.000Z,9.8
2019-02-26T00:49:00.000Z,9.8
2019-02-26T00:54:00.000Z,9.8
2019-02-26T00:59:00.000Z,9.8
2019-02-26T01:04:00.000Z,9.7
2019-02-26T01:09:00.000Z,9.7
2019-02-26T01:14:00.000Z,9.7
2019-02-26T01:19:00.000Z,9.7
2019-02-26T01:24:00.000Z,9.7
2019-02-26T01:29:00.000Z,9.7
2019-02-26T01:35:00.000Z,9.6
2019-02-26T01:40:00.000Z,9.5
2019-02-26T01:45:00.000Z,9.4
2019-02-26T01:50:00.000Z,9.4
2019-02-26T01:55:00.000Z,9.3
2019-02-26T02:00:00.000Z,9.3
2019-02-26T02:05:00.000Z,9.2
2019-02-26T02:10:00.000Z,9.2
2019-02-26T02:15:00.000Z,9.1
2019-02-26T02:20:00.000Z,9.1
2019-02-26T02:25:00.000Z,9.0
2019-02-26T02:30:00.000Z,9.0
2019-02-26T02:35:00.000Z,9.0
2019-02-26T02:40:00.000Z,9.0
2019-02-26T02:45:00.000Z,8.9
2019-02-26T02:50:00.000Z,8.9
2019-02-26T02:55:00.000Z,8.9
2019-02-26T03:01:00.000Z,8.8
2019-02-26T03:06:00.000Z,8.8
2019-02-26T03:11:00.000Z,8.8
2019-02-26T03:16:00.000Z,8.7
2019-02-26T03:21:00.000Z,8.6
2019-02-26T03:26:00.000Z,8.6
2019-02-26T03:31:00.000Z,8.6
2019-02-26T03:36:00.000Z,8.5
2019-02-26T03:41:00.000Z,8.5
2019-02-26T03:46:00.000Z,8.5
2019-02-26T03:51:00.000Z,8.4
2019-02-26T03:56:00.000Z,8.4
2019-02-26T04:01:00.000Z,8.4
2019-02-26T04:06:00.000Z,8.4
2019-02-26T04:11:00.000Z,8.4
2019-02-26T04:16:00.000Z,8.4
2019-02-26T04:21:00.000Z,8.4
2019-02-26T04:26:00.000Z,8.4
2019-02-26T04:31:00.000Z,8.4
2019-02-26T04:36:00.000Z,8.4
2019-02-26T04:41:00.000Z,8.4
2019-02-26T04:46:00.000Z,8.4
2019-02-26T04:52:00.000Z,8.3
2019-02-26T04:57:00.000Z,8.3
2019-02-26T05:02:00.000Z,8.3
2019-02-26T05:07:00.000Z,8.3
2019-02-26T05:12:00.000Z,8.3
2019-02-26T05:17:00.000Z,8.4
2019-02-26T05:22:00.000Z,8.4
2019-02-26T05:27:00.000Z,8.4
2019-02-26T05:32:00.000Z,8.5
2019-02-26T05:37:00.000Z,8.5
2019-02-26T05:42:00.000Z,8.5
2019-02-26T05:47:00.000Z,8.6
2019-02-26T05:52:00.000Z,8.6
2019-02-26T05:57:00.000Z,8.6
2019-02-26T06:02:00.000Z,8.6
2019-02-26T06:08:00.000Z,8.6
2019-02-26T06:13:00.000Z,8.6
2019-02-26T06:18:00.000Z,8.5
2019-02-26T06:23:00.000Z,8.5
2019-02-26T06:28:00.000Z,8.5
2019-02-26T06:33:00.000Z,8.5
2019-02-26T06:38:00.000Z,8.6
2019-02-26T06:43:00.000Z,8.6
2019-02-26T06:48:00.000Z,8.7
2019-02-26T06:53:00.000Z,8.7
2019-02-26T06:58:00.000Z,8.8
2019-02-26T07:03:00.000Z,8.9
2019-02-26T07:08:00.000Z,9.0
2019-02-26T07:13:00.000Z,9.2
2019-02-26T07:18:00.000Z,9.3
2019-02-26T07:23:00.000Z,9.5
2019-02-26T07:28:00.000Z,9.7
2019-02-26T07:33:00.000Z,9.9
2019-02-26T07:38:00.000Z,10.1
2019-02-26T07:43:00.000Z,10.2
2019-02-26T07:48:00.000Z,10.4
2019-02-26T07:54:00.000Z,10.5
2019-02-26T07:59:00.000Z,10.7
2019-02-26T08:04:00.000Z,10.8
2019-02-26T08:09:00.000Z,10.9
2019-02-26T08:14:00.000Z,11.0
2019-02-26T08:19:00.000Z,11.1
2019-02-26T08:24:00.000Z,11.2
2019-02-26T08:29:00.000Z,11.3
2019-02-26T08:34:00.000Z,11.4
2019-02-26T08:39:00.000Z,11.5
2019-02-26T08:44:00.000Z,11.6
2019-02-26T08:49:00.000Z,11.7
2019-02-26T08:54:00.000Z,11.8
2019-02-26T08:59:00.000Z,12.0
2019-02-26T09:04:00.000Z,12.3
2019-02-26T09:09:00.000Z,13.0
2019-02-26T09:14:00.000Z,13.6
2019-02-26T09:19:00.000Z,13.8
2019-02-26T09:25:00.000Z,14.3
2019-02-26T09:30:00.000Z,14.5
2019-02-26T09:35:00.000Z,14.8
2019-02-26T09:40:00.000Z,14.7
2019-02-26T09:45:00.000Z,14.2
2019-02-26T09:50:00.000Z,13.9
2019-02-26T09:55:00.000Z,14.0
2019-02-26T10:00:00.000Z,14.6
2019-02-26T10:05:00.000Z,14.8
2019-02-26T10:10:00.000Z,15.2
2019-02-26T10:15:00.000Z,15.6
2019-02-26T10:20:00.000Z,15.7
2019-02-26T10:25:00.000Z,15.9
2019-02-26T10:30:00.000Z,16.1
2019-02-26T10:36:00.000Z,16.2
2019-02-26T10:41:00.000Z,16.3
2019-02-26T10:46:00.000Z,16.4
2019-02-26T10:51:00.000Z,16.4
2019-02-26T10:56:00.000Z,16.4
2019-02-26T11:01:00.000Z,16.6
2019-02-26T11:06:00.000Z,16.7
2019-02-26T11:11:00.000Z,16.1
2019-02-26T11:16:00.000Z,15.5
2019-02-26T11:21:00.000Z,15.1
2019-02-26T11:26:00.000Z,15.0
2019-02-26T11:31:00.000Z,15.0
2019-02-26T11:36:00.000Z,15.0
2019-02-26T11:41:00.000Z,15.0
2019-02-26T11:46:00.000Z,15.3
2019-02-26T11:51:00.000Z,15.2
2019-02-26T11:56:00.000Z,15.1
2019-02-26T12:01:00.000Z,15.0
2019-02-26T12:07:00.000Z,15.1
2019-02-26T12:12:00.000Z,15.1
2019-02-26T12:17:00.000Z,15.2
2019-02-26T12:22:00.000Z,15.2
2019-02-26T12:27:00.000Z,15.2
2019-02-26T12:32:00.000Z,15.3
2019-02-26T12:37:00.000Z,15.4
2019-02-26T12:42:00.000Z,15.4
2019-02-26T12:47:00.000Z,15.5
2019-02-26T12:52:00.000Z,15.7
2019-02-26T12:57:00.000Z,15.9
2019-02-26T13:02:00.000Z,16.1
2019-02-26T13:07:00.000Z,16.4
2019-02-26T13:12:00.000Z,16.6
2019-02-26T13:17:00.000Z,16.7
2019-02-26T13:22:00.000Z,16.9
2019-02-26T13:27:00.000Z,17.0
2019-02-26T13:34:00.000Z,16.9
2019-02-26T13:39:00.000Z,16.8
2019-02-26T13:44:00.000Z,16.4
2019-02-26T13:49:00.000Z,16.1
2019-02-26T13:54:00.000Z,15.7
2019-02-26T13:59:00.000Z,15.4
2019-02-26T14:04:00.000Z,15.2
2019-02-26T14:09:00.000Z,15.0
2019-02-26T14:14:00.000Z,15.0
2019-02-26T14:19:00.000Z,14.9
2019-02-26T14:24:00.000Z,14.9
2019-02-26T14:29:00.000Z,14.9
2019-02-26T14:34:00.000Z,14.8
2019-02-26T14:39:00.000Z,14.7
2019-02-26T14:44:00.000Z,14.6
2019-02-26T14:49:00.000Z,14.5
2019-02-26T14:55:00.000Z,14.5
2019-02-26T15:00:00.000Z,14.4
2019-02-26T15:05:00.000Z,14.3
2019-02-26T15:10:00.000Z,14.3
2019-02-26T15:15:00.000Z,14.2
2019-02-26T15:20:00.000Z,14.1
2019-02-26T15:25:00.000Z,14.0
2019-02-26T15:30:00.000Z,13.9
2019-02-26T15:35:00.000Z,13.9
2019-02-26T15:40:00.000Z,13.9
2019-02-26T15:45:00.000Z,13.8
2019-02-26T15:50:00.000Z,13.8
2019-02-26T15:55:00.000Z,13.7
2019-02-26T16:00:00.000Z,13.6
2019-02-26T16:05:00.000Z,13.6
2019-02-26T16:10:00.000Z,13.6
2019-02-26T16:15:00.000Z,13.5
2019-02-26T16:20:00.000Z,13.4
2019-02-26T16:25:00.000Z,13.4
2019-02-26T16:30:00.000Z,13.4
2019-02-26T16:35:00.000Z,13.3
2019-02-26T16:40:00.000Z,13.3
2019-02-26T16:45:00.000Z,13.2
2019-02-26T16:50:00.000Z,13.2
2019-02-26T16:55:00.000Z,13.2
2019-02-26T17:00:00.000Z,13.1
2019-02-26T17:05:00.000Z,13.1
2019-02-26T17:10:00.000Z,13.1
2019-02-26T17:15:00.000Z,13.1
2019-02-26T17:20:00.000Z,13.0
2019-02-26T17:25:00.000Z,13.0
2019-02-26T17:30:00.000Z,12.9
2019-02-26T17:35:00.000Z,12.9
2019-02-26T17:40:00.000Z,12.8
2019-02-26T17:45:00.000Z,12.8
2019-02-26T17:50:00.000Z,12.7
2019-02-26T17:55:00.000Z,12.6
2019-02-26T18:00:00.000Z,12.5
2019-02-26T18:05:00.000Z,12.5
2019-02-26T18:10:00.000Z,12.4
2019-02-26T18:15:00.000Z,12.4
2019-02-26T18:20:00.000Z,12.3
2019-02-26T18:25:00.000Z,12.3
2019-02-26T18:30:00.000Z,12.2
2019-02-26T18:36:00.000Z,12.2
2019-02-26T18:41:00.000Z,12.1
2019-02-26T18:46:00.000Z,12.1
2019-02-26T18:51:00.000Z,12.0
2019-02-26T18:56:00.000Z,12.0
2019-02-26T19:01:00.000Z,11.9
2019-02-26T19:06:00.000Z,11.9
2019-02-26T19:11:00.000Z,11.9
2019-02-26T19:16:00.000Z,11.8
2019-02-26T19:21:00.000Z,11.8
2019-02-26T19:26:00.000Z,11.7
2019-02-26T19:31:00.000Z,11.7
2019-02-26T19:36:00.000Z,11.6
2019-02-26T19:41:00.000Z,11.6
2019-02-26T19:46:00.000Z,11.6
2019-02-26T19:51:00.000Z,11.5
2019-02-26T19:56:00.000Z,11.5
2019-02-26T20:01:00.000Z,11.5
2019-02-26T20:06:00.000Z,11.4
2019-02-26T20:11:00.000Z,11.4
2019-02-26T20:16:00.000Z,11.4
2019-02-26T20:21:00.000Z,11.3
2019-02-26T20:26:00.000Z,11.3
2019-02-26T20:31:00.000Z,11.2
2019-02-26T20:36:00.000Z,11.2
2019-02-26T20:41:00.000Z,11.2
2019-02-26T20:46:00.000Z,11.2
2019-02-26T20:51:00.000Z,11.1
2019-02-26T20:56:00.000Z,11.1
2019-02-26T21:01:00.000Z,11.0
2019-02-26T21:06:00.000Z,11.0
2019-02-26T21:11:00.000Z,11.0
2019-02-26T21:16:00.000Z,10.9
2019-02-26T21:21:00.000Z,10.9
2019-02-26T21:26:00.000Z,10.9
2019-02-26T21:31:00.000Z,10.8
2019-02-26T21:36:00.000Z,10.8
2019-02-26T21:41:00.000Z,10.7
2019-02-26T21:46:00.000Z,10.7
2019-02-26T21:51:00.000Z,10.6
2019-02-26T21:56:00.000Z,10.6
2019-02-26T22:01:00.000Z,10.5
2019-02-26T22:06:00.000Z,10.5
2019-02-26T22:11:00.000Z,10.4
2019-02-26T22:16:00.000Z,10.3
2019-02-26T22:21:00.000Z,10.3
2019-02-26T22:26:00.000Z,10.2
2019-02-26T22:31:00.000Z,10.2
2019-02-26T22:36:00.000Z,10.1
2019-02-26T22:41:00.000Z,10.1
2019-02-26T22:46:00.000Z,10.0
2019-02-26T22:51:00.000Z,10.0
2019-02-26T22:57:00.000Z,9.9
2019-02-26T23:02:00.000Z,9.9
2019-02-26T23:07:00.000Z,9.8
2019-02-26T23:12:00.000Z,9.8
2019-02-26T23:17:00.000Z,9.7
2019-02-26T23:22:00.000Z,9.6
2019-02-26T23:27:00.000Z,9.5
2019-02-26T23:32:00.000Z,9.5
2019-02-26T23:37:00.000Z,9.4
2019-02-26T23:42:00.000Z,9.4
2019-02-26T23:47:00.000Z,9.3
2019-02-26T23:52:00.000Z,9.3
2019-02-26T23:57:00.000Z,9.2
